Lena-s. — V2EC7 — position and weather

sailwx.info

Track history (hours):
 
Tides and Currents Weather Stations Pressure Air Temp Water Temp Dewpoint Dewpoint Depression Visibility Wind Speed Wind Dir Waves Ship Positions

Lena-s.

Last reported at 2016-May-23 20:33 UTC. Time now 2016-May-24 13:50 UTC.
Position N 19°57' E 112°59'.

Length 261 m; draft 10.1 m.

Type: Ship (hazmat cat D). MMSI: 305386000.

Date/timePositionNaut miles runAvg speedWind from/ knotsBaromVisibWave heightAir tempDewpointWater temp
2016-May-23 20:33N 19°57' E 112°59'15915.3
2016-May-23 10:08N 22°11' E 114°31'2 0.1
2016-May-22 17:26N 22°13' E 114°33'2511.5
2016-May-22 15:17N 22°16' E 114°06'1311.0
2016-May-22 14:06N 22°23' E 113°54'5 8.5
2016-May-22 13:33N 22°27' E 113°52'3 0.2
2016-May-21 18:33N 22°24' E 113°53'11 9.2
2016-May-21 17:20N 22°20' E 114°05'18 9.6
2016-May-21 15:27N 22°08' E 114°19'9 9.9
2016-May-21 14:33N 22°00' E 114°24'  
2016-May-17 12:33N 01°16' E 104°09'1414.0
2016-May-17 11:34N 01°13' E 103°56'3 2.4
2016-May-17 10:22N 01°15' E 103°53'0 0.0
2016-May-17 09:31N 01°15' E 103°53'0 0.1
2016-May-17 08:16N 01°15' E 103°54'0 0.1
2016-May-17 07:28N 01°15' E 103°54'0 0.0
2016-May-17 06:19N 01°15' E 103°54'0 0.0
2016-May-17 05:16N 01°15' E 103°54'0 0.0
2016-May-17 04:31N 01°15' E 103°54'0 0.0
2016-May-17 03:25N 01°15' E 103°54'0 0.0
2016-May-17 02:28N 01°15' E 103°54'0 0.0
2016-May-17 01:31N 01°15' E 103°54'0 0.0
2016-May-17 00:31N 01°15' E 103°54'0 0.1
2016-May-16 23:31N 01°15' E 103°54'0 0.2
2016-May-16 22:31N 01°15' E 103°54'0 0.0
2016-May-16 21:28N 01°15' E 103°54'0 0.1
2016-May-16 20:31N 01°15' E 103°54'0 0.0
2016-May-16 19:31N 01°15' E 103°54'0 0.2
2016-May-16 18:22N 01°15' E 103°53'0 0.1
2016-May-16 17:31N 01°15' E 103°53'0 0.1
2016-May-16 16:31N 01°15' E 103°54'0 0.1
2016-May-16 15:31N 01°15' E 103°53'2 2.3
2016-May-16 14:33N 01°15' E 103°51'1 0.5
2016-May-16 13:29N 01°16' E 103°51'0 0.0
2016-May-16 12:08N 01°16' E 103°51'0 0.0
2016-May-16 11:32N 01°16' E 103°51'0 0.0
2016-May-16 10:17N 01°16' E 103°51'0 0.0
2016-May-16 09:23N 01°16' E 103°51'0 0.0
2016-May-16 08:32N 01°16' E 103°51'0 0.0
2016-May-16 07:23N 01°16' E 103°51'0 0.0
2016-May-16 06:34N 01°16' E 103°51'5 4.5
2016-May-16 05:33N 01°11' E 103°52'1211.8
2016-May-16 04:33N 01°04' E 103°42'1212.2
2016-May-16 03:33N 01°07' E 103°31'5413.4
2016-May-15 23:31N 01°39' E 102°47'1513.4
2016-May-15 22:23N 01°46' E 102°33'1113.5
2016-May-15 21:33N 01°50' E 102°23'1313.5
2016-May-15 20:33N 01°57' E 102°11'1513.6
2016-May-15 19:26N 02°07' E 101°60'1213.6
2016-May-15 18:33N 02°14' E 101°51'  
Track history (hours):
 
Tides and Currents Weather Stations Pressure Air Temp Water Temp Dewpoint Dewpoint Depression Visibility Wind Speed Wind Dir Waves Ship Positions

Lena-s.

Last reported at 2016-May-23 20:33 UTC. Time now 2016-May-24 13:50 UTC.
Position N 19°57' E 112°59'.

Length 261 m; draft 10.1 m.

Type: Ship (hazmat cat D). MMSI: 305386000.

Date/timePositionNaut miles runAvg speedWind from/ knotsBaromVisibWave heightAir tempDewpointWater temp
2016-May-23 20:33N 19°57' E 112°59'15915.3
2016-May-23 10:08N 22°11' E 114°31'2 0.1
2016-May-22 17:26N 22°13' E 114°33'2511.5
2016-May-22 15:17N 22°16' E 114°06'1311.0
2016-May-22 14:06N 22°23' E 113°54'5 8.5
2016-May-22 13:33N 22°27' E 113°52'3 0.2
2016-May-21 18:33N 22°24' E 113°53'11 9.2
2016-May-21 17:20N 22°20' E 114°05'18 9.6
2016-May-21 15:27N 22°08' E 114°19'9 9.9
2016-May-21 14:33N 22°00' E 114°24'  
2016-May-17 12:33N 01°16' E 104°09'1414.0
2016-May-17 11:34N 01°13' E 103°56'3 2.4
2016-May-17 10:22N 01°15' E 103°53'0 0.0
2016-May-17 09:31N 01°15' E 103°53'0 0.1
2016-May-17 08:16N 01°15' E 103°54'0 0.1
2016-May-17 07:28N 01°15' E 103°54'0 0.0
2016-May-17 06:19N 01°15' E 103°54'0 0.0
2016-May-17 05:16N 01°15' E 103°54'0 0.0
2016-May-17 04:31N 01°15' E 103°54'0 0.0
2016-May-17 03:25N 01°15' E 103°54'0 0.0
2016-May-17 02:28N 01°15' E 103°54'0 0.0
2016-May-17 01:31N 01°15' E 103°54'0 0.0
2016-May-17 00:31N 01°15' E 103°54'0 0.1
2016-May-16 23:31N 01°15' E 103°54'0 0.2
2016-May-16 22:31N 01°15' E 103°54'0 0.0
2016-May-16 21:28N 01°15' E 103°54'0 0.1
2016-May-16 20:31N 01°15' E 103°54'0 0.0
2016-May-16 19:31N 01°15' E 103°54'0 0.2
2016-May-16 18:22N 01°15' E 103°53'0 0.1
2016-May-16 17:31N 01°15' E 103°53'0 0.1
2016-May-16 16:31N 01°15' E 103°54'0 0.1
2016-May-16 15:31N 01°15' E 103°53'2 2.3
2016-May-16 14:33N 01°15' E 103°51'1 0.5
2016-May-16 13:29N 01°16' E 103°51'0 0.0
2016-May-16 12:08N 01°16' E 103°51'0 0.0
2016-May-16 11:32N 01°16' E 103°51'0 0.0
2016-May-16 10:17N 01°16' E 103°51'0 0.0
2016-May-16 09:23N 01°16' E 103°51'0 0.0
2016-May-16 08:32N 01°16' E 103°51'0 0.0
2016-May-16 07:23N 01°16' E 103°51'0 0.0
2016-May-16 06:34N 01°16' E 103°51'5 4.5
2016-May-16 05:33N 01°11' E 103°52'1211.8
2016-May-16 04:33N 01°04' E 103°42'1212.2
2016-May-16 03:33N 01°07' E 103°31'5413.4
2016-May-15 23:31N 01°39' E 102°47'1513.4
2016-May-15 22:23N 01°46' E 102°33'1113.5
2016-May-15 21:33N 01°50' E 102°23'1313.5
2016-May-15 20:33N 01°57' E 102°11'1513.6
2016-May-15 19:26N 02°07' E 101°60'1213.6
2016-May-15 18:33N 02°14' E 101°51'  

Dump ship's entire track history